sensor_id;sensor_type;location;lat;lon;timestamp;pressure;altitude;pressure_sealevel;temperature;humidity
73240;BME280;61452;40.054;4.110;2023-12-04T00:00:37;102160.16;;;17.30;100.00
73240;BME280;61452;40.054;4.110;2023-12-04T00:05:42;102142.44;;;17.30;100.00
73240;BME280;61452;40.054;4.110;2023-12-04T00:10:45;102145.09;;;17.30;100.00
73240;BME280;61452;40.054;4.110;2023-12-04T00:15:47;102133.63;;;17.30;100.00
73240;BME280;61452;40.054;4.110;2023-12-04T00:20:49;102116.97;;;17.28;100.00
73240;BME280;61452;40.054;4.110;2023-12-04T00:25:51;102113.34;;;17.29;100.00
73240;BME280;61452;40.054;4.110;2023-12-04T00:30:54;102109.50;;;17.34;100.00
73240;BME280;61452;40.054;4.110;2023-12-04T00:35:57;102106.84;;;17.34;100.00
73240;BME280;61452;40.054;4.110;2023-12-04T00:40:59;102100.09;;;17.29;100.00
73240;BME280;61452;40.054;4.110;2023-12-04T00:46:01;102094.88;;;17.27;100.00
73240;BME280;61452;40.054;4.110;2023-12-04T00:51:03;102091.38;;;17.27;100.00
73240;BME280;61452;40.054;4.110;2023-12-04T00:56:05;102082.56;;;17.26;100.00
73240;BME280;61452;40.054;4.110;2023-12-04T01:01:08;102065.72;;;17.27;100.00
73240;BME280;61452;40.054;4.110;2023-12-04T01:06:20;102055.28;;;17.24;100.00
73240;BME280;61452;40.054;4.110;2023-12-04T01:11:23;102049.03;;;17.25;100.00
73240;BME280;61452;40.054;4.110;2023-12-04T01:16:25;102049.88;;;17.26;100.00
73240;BME280;61452;40.054;4.110;2023-12-04T01:21:28;102046.38;;;17.25;100.00
73240;BME280;61452;40.054;4.110;2023-12-04T01:26:30;102045.59;;;17.23;100.00
73240;BME280;61452;40.054;4.110;2023-12-04T01:31:32;102051.75;;;17.24;100.00
73240;BME280;61452;40.054;4.110;2023-12-04T01:36:34;102067.59;;;17.25;100.00
73240;BME280;61452;40.054;4.110;2023-12-04T01:41:36;102080.06;;;17.23;100.00
73240;BME280;61452;40.054;4.110;2023-12-04T01:46:39;102065.00;;;17.24;100.00
73240;BME280;61452;40.054;4.110;2023-12-04T01:51:42;102052.69;;;17.23;100.00
73240;BME280;61452;40.054;4.110;2023-12-04T01:56:44;102038.69;;;17.21;100.00
73240;BME280;61452;40.054;4.110;2023-12-04T02:01:48;102035.19;;;17.20;100.00
73240;BME280;61452;40.054;4.110;2023-12-04T02:06:50;102011.31;;;17.20;100.00
73240;BME280;61452;40.054;4.110;2023-12-04T02:11:53;102018.34;;;17.21;100.00
73240;BME280;61452;40.054;4.110;2023-12-04T02:17:01;102020.13;;;17.21;100.00
73240;BME280;61452;40.054;4.110;2023-12-04T02:22:04;102020.13;;;17.21;100.00
73240;BME280;61452;40.054;4.110;2023-12-04T02:27:14;102004.28;;;17.19;100.00
73240;BME280;61452;40.054;4.110;2023-12-04T02:32:19;101991.91;;;17.20;100.00
73240;BME280;61452;40.054;4.110;2023-12-04T02:37:23;101978.72;;;17.18;100.00
73240;BME280;61452;40.054;4.110;2023-12-04T02:42:25;101995.47;;;17.19;100.00
73240;BME280;61452;40.054;4.110;2023-12-04T02:47:28;102004.38;;;17.18;100.00
73240;BME280;61452;40.054;4.110;2023-12-04T02:52:30;102017.63;;;17.18;100.00
73240;BME280;61452;40.054;4.110;2023-12-04T02:57:32;101998.41;;;17.14;100.00
73240;BME280;61452;40.054;4.110;2023-12-04T03:02:34;102001.81;;;17.16;100.00
73240;BME280;61452;40.054;4.110;2023-12-04T03:07:36;102002.59;;;17.18;100.00
73240;BME280;61452;40.054;4.110;2023-12-04T03:12:38;101999.34;;;17.13;100.00
73240;BME280;61452;40.054;4.110;2023-12-04T03:17:40;101997.28;;;17.18;100.00
73240;BME280;61452;40.054;4.110;2023-12-04T03:22:42;102008.81;;;17.17;100.00
73240;BME280;61452;40.054;4.110;2023-12-04T03:27:44;101985.03;;;17.16;100.00
73240;BME280;61452;40.054;4.110;2023-12-04T03:32:47;101968.31;;;17.15;100.00
73240;BME280;61452;40.054;4.110;2023-12-04T03:37:49;101959.50;;;17.15;100.00
73240;BME280;61452;40.054;4.110;2023-12-04T03:42:51;101956.94;;;17.13;100.00
73240;BME280;61452;40.054;4.110;2023-12-04T03:47:53;101956.94;;;17.13;100.00
73240;BME280;61452;40.054;4.110;2023-12-04T03:52:55;101971.91;;;17.14;100.00
73240;BME280;61452;40.054;4.110;2023-12-04T03:57:58;101966.59;;;17.14;100.00
73240;BME280;61452;40.054;4.110;2023-12-04T04:03:01;101943.59;;;17.15;100.00
73240;BME280;61452;40.054;4.110;2023-12-04T04:08:03;101941.97;;;17.12;100.00
73240;BME280;61452;40.054;4.110;2023-12-04T04:13:07;101925.88;;;17.15;100.00
73240;BME280;61452;40.054;4.110;2023-12-04T04:18:09;101917.16;;;17.13;100.00
73240;BME280;61452;40.054;4.110;2023-12-04T04:23:11;101911.84;;;17.13;100.00
73240;BME280;61452;40.054;4.110;2023-12-04T04:28:13;101903.03;;;17.13;100.00
73240;BME280;61452;40.054;4.110;2023-12-04T04:33:15;101899.53;;;17.12;100.00
73240;BME280;61452;40.054;4.110;2023-12-04T04:38:19;101889.13;;;17.09;100.00
73240;BME280;61452;40.054;4.110;2023-12-04T04:43:21;101884.56;;;17.11;100.00
73240;BME280;61452;40.054;4.110;2023-12-04T04:48:23;101875.94;;;17.08;100.00
73240;BME280;61452;40.054;4.110;2023-12-04T04:53:25;101898.59;;;17.13;100.00
73240;BME280;61452;40.054;4.110;2023-12-04T04:58:27;101896.88;;;17.12;100.00
73240;BME280;61452;40.054;4.110;2023-12-04T05:03:29;101881.91;;;17.11;100.00
73240;BME280;61452;40.054;4.110;2023-12-04T05:08:31;101884.56;;;17.11;100.00
73240;BME280;61452;40.054;4.110;2023-12-04T05:13:33;101879.19;;;17.13;100.00
73240;BME280;61452;40.054;4.110;2023-12-04T05:18:35;101880.19;;;17.10;100.00
73240;BME280;61452;40.054;4.110;2023-12-04T05:23:38;101875.75;;;17.11;100.00
73240;BME280;61452;40.054;4.110;2023-12-04T05:28:40;101883.72;;;17.11;100.00
73240;BME280;61452;40.054;4.110;2023-12-04T05:33:42;101881.06;;;17.11;100.00
73240;BME280;61452;40.054;4.110;2023-12-04T05:38:46;101865.28;;;17.09;100.00
73240;BME280;61452;40.054;4.110;2023-12-04T05:43:48;101860.63;;;17.13;100.00
73240;BME280;61452;40.054;4.110;2023-12-04T05:48:50;101849.25;;;17.11;100.00
73240;BME280;61452;40.054;4.110;2023-12-04T05:53:52;101852.00;;;17.09;100.00
73240;BME280;61452;40.054;4.110;2023-12-04T05:58:54;101857.13;;;17.12;100.00
73240;BME280;61452;40.054;4.110;2023-12-04T06:03:57;101860.78;;;17.10;100.00
73240;BME280;61452;40.054;4.110;2023-12-04T06:08:59;101851.16;;;17.09;100.00
73240;BME280;61452;40.054;4.110;2023-12-04T06:14:02;101851.03;;;17.10;100.00
73240;BME280;61452;40.054;4.110;2023-12-04T06:19:04;101842.34;;;17.08;100.00
73240;BME280;61452;40.054;4.110;2023-12-04T06:24:06;101847.53;;;17.10;100.00
73240;BME280;61452;40.054;4.110;2023-12-04T06:29:10;101849.25;;;17.11;100.00
73240;BME280;61452;40.054;4.110;2023-12-04T06:34:13;101846.78;;;17.08;100.00
73240;BME280;61452;40.054;4.110;2023-12-04T06:39:16;101847.66;;;17.08;100.00
73240;BME280;61452;40.054;4.110;2023-12-04T06:44:19;101853.81;;;17.09;100.00
73240;BME280;61452;40.054;4.110;2023-12-04T06:49:21;101846.72;;;17.09;100.00
73240;BME280;61452;40.054;4.110;2023-12-04T06:54:24;101851.16;;;17.09;100.00
73240;BME280;61452;40.054;4.110;2023-12-04T06:59:26;101852.94;;;17.08;100.00
73240;BME280;61452;40.054;4.110;2023-12-04T07:04:29;101871.16;;;17.14;100.00
73240;BME280;61452;40.054;4.110;2023-12-04T07:09:32;101871.03;;;17.16;100.00
73240;BME280;61452;40.054;4.110;2023-12-04T07:14:35;101865.72;;;17.16;100.00
73240;BME280;61452;40.054;4.110;2023-12-04T07:19:37;101859.97;;;17.09;100.00
73240;BME280;61452;40.054;4.110;2023-12-04T07:24:39;101860.78;;;17.10;100.00
73240;BME280;61452;40.054;4.110;2023-12-04T07:29:41;101862.63;;;17.09;100.00
73240;BME280;61452;40.054;4.110;2023-12-04T07:34:44;101869.72;;;17.09;100.00
73240;BME280;61452;40.054;4.110;2023-12-04T07:39:46;101867.06;;;17.09;100.00
73240;BME280;61452;40.054;4.110;2023-12-04T07:44:49;101861.66;;;17.10;100.00
73240;BME280;61452;40.054;4.110;2023-12-04T07:49:51;101870.56;;;17.09;100.00
73240;BME280;61452;40.054;4.110;2023-12-04T07:54:53;101872.25;;;17.10;100.00
73240;BME280;61452;40.054;4.110;2023-12-04T07:59:55;101876.69;;;17.10;100.00
73240;BME280;61452;40.054;4.110;2023-12-04T08:04:57;101891.78;;;17.09;100.00
73240;BME280;61452;40.054;4.110;2023-12-04T08:09:59;101886.47;;;17.09;100.00
73240;BME280;61452;40.054;4.110;2023-12-04T08:15:02;101881.16;;;17.09;100.00
73240;BME280;61452;40.054;4.110;2023-12-04T08:20:05;101869.72;;;17.09;100.00
73240;BME280;61452;40.054;4.110;2023-12-04T08:25:08;101867.81;;;17.11;100.00
73240;BME280;61452;40.054;4.110;2023-12-04T08:30:11;101870.47;;;17.11;100.00
73240;BME280;61452;40.054;4.110;2023-12-04T08:35:14;101871.41;;;17.10;100.00
73240;BME280;61452;40.054;4.110;2023-12-04T08:40:16;101871.41;;;17.10;100.00
73240;BME280;61452;40.054;4.110;2023-12-04T08:45:19;101871.03;;;17.16;100.00
73240;BME280;61452;40.054;4.110;2023-12-04T08:50:21;101876.69;;;17.10;100.00
73240;BME280;61452;40.054;4.110;2023-12-04T08:55:23;101882.13;;;17.08;100.00
73240;BME280;61452;40.054;4.110;2023-12-04T09:00:26;101875.00;;;17.09;100.00
73240;BME280;61452;40.054;4.110;2023-12-04T09:05:28;101867.22;;;17.06;100.00
73240;BME280;61452;40.054;4.110;2023-12-04T09:10:30;101882.84;;;17.10;100.00
73240;BME280;61452;40.054;4.110;2023-12-04T09:15:52;101877.66;;;17.09;100.00
73240;BME280;61452;40.054;4.110;2023-12-04T09:20:54;101893.47;;;17.10;100.00
73240;BME280;61452;40.054;4.110;2023-12-04T09:25:57;101879.34;;;17.10;100.00
73240;BME280;61452;40.054;4.110;2023-12-04T09:30:59;101882.84;;;17.10;100.00
73240;BME280;61452;40.054;4.110;2023-12-04T09:36:01;101883.81;;;17.09;100.00
73240;BME280;61452;40.054;4.110;2023-12-04T09:41:03;101880.31;;;17.09;100.00
73240;BME280;61452;40.054;4.110;2023-12-04T09:46:09;101874.16;;;17.08;100.00
73240;BME280;61452;40.054;4.110;2023-12-04T09:51:12;101867.31;;;17.04;100.00
73240;BME280;61452;40.054;4.110;2023-12-04T09:56:15;101853.03;;;17.07;100.00
73240;BME280;61452;40.054;4.110;2023-12-04T10:01:20;101850.31;;;17.08;100.00
73240;BME280;61452;40.054;4.110;2023-12-04T10:06:28;101843.28;;;17.07;100.00
73240;BME280;61452;40.054;4.110;2023-12-04T10:11:30;101822.94;;;17.08;100.00
73240;BME280;61452;40.054;4.110;2023-12-04T10:16:36;101813.28;;;17.07;100.00
73240;BME280;61452;40.054;4.110;2023-12-04T10:21:38;101807.03;;;17.08;100.00
73240;BME280;61452;40.054;4.110;2023-12-04T10:26:50;101793.84;;;17.06;100.00
73240;BME280;61452;40.054;4.110;2023-12-04T10:31:54;101778.81;;;17.07;100.00
73240;BME280;61452;40.054;4.110;2023-12-04T10:36:57;101778.81;;;17.07;100.00
73240;BME280;61452;40.054;4.110;2023-12-04T10:42:01;101767.34;;;17.06;100.00
73240;BME280;61452;40.054;4.110;2023-12-04T10:47:04;101759.41;;;17.06;100.00
73240;BME280;61452;40.054;4.110;2023-12-04T10:52:09;101741.69;;;17.07;100.00
73240;BME280;61452;40.054;4.110;2023-12-04T10:57:11;101731.09;;;17.07;100.00
73240;BME280;61452;40.054;4.110;2023-12-04T11:02:19;101711.69;;;17.06;100.00
73240;BME280;61452;40.054;4.110;2023-12-04T11:07:24;101707.25;;;17.07;100.00
73240;BME280;61452;40.054;4.110;2023-12-04T11:12:29;101703.72;;;17.06;100.00
73240;BME280;61452;40.054;4.110;2023-12-04T11:17:34;101721.44;;;17.06;100.00
73240;BME280;61452;40.054;4.110;2023-12-04T11:22:39;101722.28;;;17.06;100.00
73240;BME280;61452;40.054;4.110;2023-12-04T11:27:42;101718.63;;;17.09;100.00
73240;BME280;61452;40.054;4.110;2023-12-04T11:32:46;101710.53;;;17.10;100.00
73240;BME280;61452;40.054;4.110;2023-12-04T11:37:53;101674.41;;;17.09;100.00
73240;BME280;61452;40.054;4.110;2023-12-04T11:42:55;101664.84;;;17.07;100.00
73240;BME280;61452;40.054;4.110;2023-12-04T11:47:57;101654.03;;;17.10;100.00
73240;BME280;61452;40.054;4.110;2023-12-04T11:53:02;101637.28;;;17.09;100.00
73240;BME280;61452;40.054;4.110;2023-12-04T11:58:10;101634.53;;;17.11;100.00
73240;BME280;61452;40.054;4.110;2023-12-04T12:03:14;101645.13;;;17.11;100.00
73240;BME280;61452;40.054;4.110;2023-12-04T12:08:24;101649.50;;;17.12;100.00
73240;BME280;61452;40.054;4.110;2023-12-04T12:13:27;101639.09;;;17.09;100.00
73240;BME280;61452;40.054;4.110;2023-12-04T12:18:29;101633.78;;;17.09;100.00
73240;BME280;61452;40.054;4.110;2023-12-04T12:23:32;101641.63;;;17.10;100.00
73240;BME280;61452;40.054;4.110;2023-12-04T12:28:35;101631.03;;;17.10;100.00
73240;BME280;61452;40.054;4.110;2023-12-04T12:33:37;101627.44;;;17.11;100.00
73240;BME280;61452;40.054;4.110;2023-12-04T12:38:40;101618.53;;;17.12;100.00
73240;BME280;61452;40.054;4.110;2023-12-04T12:43:42;101610.66;;;17.11;100.00
73240;BME280;61452;40.054;4.110;2023-12-04T12:48:44;101603.56;;;17.11;100.00
73240;BME280;61452;40.054;4.110;2023-12-04T12:53:48;101608.00;;;17.11;100.00
73240;BME280;61452;40.054;4.110;2023-12-04T12:58:53;101604.41;;;17.12;100.00
73240;BME280;61452;40.054;4.110;2023-12-04T13:03:56;101593.81;;;17.12;100.00
73240;BME280;61452;40.054;4.110;2023-12-04T13:08:59;101593.06;;;17.10;100.00
73240;BME280;61452;40.054;4.110;2023-12-04T13:14:01;101587.66;;;17.11;100.00
73240;BME280;61452;40.054;4.110;2023-12-04T13:19:03;101574.31;;;17.13;100.00
73240;BME280;61452;40.054;4.110;2023-12-04T13:24:05;101579.63;;;17.13;100.00
73240;BME280;61452;40.054;4.110;2023-12-04T13:29:11;101567.31;;;17.12;100.00
73240;BME280;61452;40.054;4.110;2023-12-04T13:34:13;101549.69;;;17.11;100.00
73240;BME280;61452;40.054;4.110;2023-12-04T13:39:15;101559.28;;;17.13;100.00
73240;BME280;61452;40.054;4.110;2023-12-04T13:44:29;101558.41;;;17.13;100.00
73240;BME280;61452;40.054;4.110;2023-12-04T13:49:31;101550.47;;;17.13;100.00
73240;BME280;61452;40.054;4.110;2023-12-04T13:54:34;101547.81;;;17.13;100.00
73240;BME280;61452;40.054;4.110;2023-12-04T13:59:46;101541.66;;;17.12;100.00
73240;BME280;61452;40.054;4.110;2023-12-04T14:04:49;101537.28;;;17.11;100.00
73240;BME280;61452;40.054;4.110;2023-12-04T14:09:51;101524.91;;;17.12;100.00
73240;BME280;61452;40.054;4.110;2023-12-04T14:14:53;101540.72;;;17.13;100.00
73240;BME280;61452;40.054;4.110;2023-12-04T14:19:59;101531.91;;;17.13;100.00
73240;BME280;61452;40.054;4.110;2023-12-04T14:25:01;101521.31;;;17.13;100.00
73240;BME280;61452;40.054;4.110;2023-12-04T14:30:03;101521.31;;;17.13;100.00
73240;BME280;61452;40.054;4.110;2023-12-04T14:35:06;101512.50;;;17.12;100.00
73240;BME280;61452;40.054;4.110;2023-12-04T14:40:11;101511.56;;;17.13;100.00
73240;BME280;61452;40.054;4.110;2023-12-04T14:45:14;101500.84;;;17.15;100.00
73240;BME280;61452;40.054;4.110;2023-12-04T14:50:18;101510.69;;;17.13;100.00
73240;BME280;61452;40.054;4.110;2023-12-04T14:55:20;101514.13;;;17.15;100.00
73240;BME280;61452;40.054;4.110;2023-12-04T15:00:25;101512.31;;;17.15;100.00
73240;BME280;61452;40.054;4.110;2023-12-04T15:05:45;101499.88;;;17.16;100.00
73240;BME280;61452;40.054;4.110;2023-12-04T15:11:07;101516.63;;;17.16;100.00
73240;BME280;61452;40.054;4.110;2023-12-04T15:16:28;101517.50;;;17.17;100.00
73240;BME280;61452;40.054;4.110;2023-12-04T15:21:50;101506.88;;;17.17;100.00
73240;BME280;61452;40.054;4.110;2023-12-04T15:26:52;101504.16;;;17.18;100.00
73240;BME280;61452;40.054;4.110;2023-12-04T15:31:54;101502.34;;;17.19;100.00
73240;BME280;61452;40.054;4.110;2023-12-04T15:36:56;101492.78;;;17.16;100.00
73240;BME280;61452;40.054;4.110;2023-12-04T15:41:58;101490.13;;;17.16;100.00
73240;BME280;61452;40.054;4.110;2023-12-04T15:47:00;101502.53;;;17.16;100.00
73240;BME280;61452;40.054;4.110;2023-12-04T15:52:03;101491.84;;;17.17;100.00
73240;BME280;61452;40.054;4.110;2023-12-04T15:57:06;101499.78;;;17.17;100.00
73240;BME280;61452;40.054;4.110;2023-12-04T16:02:10;101499.59;;;17.20;100.00
73240;BME280;61452;40.054;4.110;2023-12-04T16:07:12;101502.34;;;17.19;100.00
73240;BME280;61452;40.054;4.110;2023-12-04T16:12:14;101497.91;;;17.19;100.00
73240;BME280;61452;40.054;4.110;2023-12-04T16:17:16;101518.16;;;17.20;100.00
73240;BME280;61452;40.054;4.110;2023-12-04T16:22:19;101497.03;;;17.19;100.00
73240;BME280;61452;40.054;4.110;2023-12-04T16:27:21;101485.59;;;17.18;100.00
73240;BME280;61452;40.054;4.110;2023-12-04T16:32:23;101489.84;;;17.21;100.00
73240;BME280;61452;40.054;4.110;2023-12-04T16:37:26;101503.19;;;17.19;100.00
73240;BME280;61452;40.054;4.110;2023-12-04T16:42:30;101505.84;;;17.19;100.00
73240;BME280;61452;40.054;4.110;2023-12-04T16:47:32;101505.00;;;17.19;100.00
73240;BME280;61452;40.054;4.110;2023-12-04T16:52:34;101499.88;;;17.16;100.00
73240;BME280;61452;40.054;4.110;2023-12-04T16:57:37;101504.81;;;17.22;100.00
73240;BME280;61452;40.054;4.110;2023-12-04T17:02:39;101505.38;;;17.27;100.00
73240;BME280;61452;40.054;4.110;2023-12-04T17:07:41;101509.81;;;17.26;100.00
73240;BME280;61452;40.054;4.110;2023-12-04T17:12:43;101511.06;;;17.21;100.00
73240;BME280;61452;40.054;4.110;2023-12-04T17:17:47;101500.47;;;17.21;100.00
73240;BME280;61452;40.054;4.110;2023-12-04T17:22:49;101501.00;;;17.26;100.00
73240;BME280;61452;40.054;4.110;2023-12-04T17:27:51;101506.22;;;17.27;100.00
73240;BME280;61452;40.054;4.110;2023-12-04T17:32:53;101514.16;;;17.27;100.00
73240;BME280;61452;40.054;4.110;2023-12-04T17:37:56;101513.31;;;17.27;100.00
73240;BME280;61452;40.054;4.110;2023-12-04T17:42:58;101509.81;;;17.26;100.00
73240;BME280;61452;40.054;4.110;2023-12-04T17:48:00;101510.94;;;17.22;100.00
73240;BME280;61452;40.054;4.110;2023-12-04T17:53:03;101510.94;;;17.22;100.00
73240;BME280;61452;40.054;4.110;2023-12-04T17:58:05;101525.19;;;17.21;100.00
73240;BME280;61452;40.054;4.110;2023-12-04T18:03:07;101519.97;;;17.20;100.00
73240;BME280;61452;40.054;4.110;2023-12-04T18:08:12;101503.09;;;17.21;100.00
73240;BME280;61452;40.054;4.110;2023-12-04T18:13:14;101510.13;;;17.22;100.00
73240;BME280;61452;40.054;4.110;2023-12-04T18:18:16;101510.22;;;17.20;100.00
73240;BME280;61452;40.054;4.110;2023-12-04T18:23:20;101519.88;;;17.21;100.00
73240;BME280;61452;40.054;4.110;2023-12-04T18:28:22;101520.41;;;17.26;100.00
73240;BME280;61452;40.054;4.110;2023-12-04T18:33:25;101523.94;;;17.27;100.00
73240;BME280;61452;40.054;4.110;2023-12-04T18:38:34;101530.34;;;17.23;100.00
73240;BME280;61452;40.054;4.110;2023-12-04T18:43:38;101532.28;;;17.21;100.00
73240;BME280;61452;40.054;4.110;2023-12-04T18:48:44;101526.75;;;17.24;100.00
73240;BME280;61452;40.054;4.110;2023-12-04T18:53:47;101527.81;;;17.21;100.00
73240;BME280;61452;40.054;4.110;2023-12-04T18:58:49;101526.84;;;17.22;100.00
73240;BME280;61452;40.054;4.110;2023-12-04T19:03:51;101531.22;;;17.23;100.00
73240;BME280;61452;40.054;4.110;2023-12-04T19:08:53;101525.19;;;17.21;100.00
73240;BME280;61452;40.054;4.110;2023-12-04T19:13:55;101536.63;;;17.22;100.00
73240;BME280;61452;40.054;4.110;2023-12-04T19:18:57;101541.94;;;17.22;100.00
73240;BME280;61452;40.054;4.110;2023-12-04T19:23:59;101549.75;;;17.23;100.00
73240;BME280;61452;40.054;4.110;2023-12-04T19:29:02;101538.31;;;17.23;100.00
73240;BME280;61452;40.054;4.110;2023-12-04T19:34:03;101547.25;;;17.22;100.00
73240;BME280;61452;40.054;4.110;2023-12-04T19:39:06;101548.91;;;17.23;100.00
73240;BME280;61452;40.054;4.110;2023-12-04T19:44:09;101543.59;;;17.23;100.00
73240;BME280;61452;40.054;4.110;2023-12-04T19:49:11;101534.16;;;17.19;100.00
73240;BME280;61452;40.054;4.110;2023-12-04T19:54:14;101536.72;;;17.20;100.00
73240;BME280;61452;40.054;4.110;2023-12-04T19:59:16;101535.88;;;17.20;100.00
73240;BME280;61452;40.054;4.110;2023-12-04T20:04:18;101539.28;;;17.22;100.00
73240;BME280;61452;40.054;4.110;2023-12-04T20:09:20;101548.19;;;17.21;100.00
73240;BME280;61452;40.054;4.110;2023-12-04T20:14:22;101544.78;;;17.19;100.00
73240;BME280;61452;40.054;4.110;2023-12-04T20:19:24;101547.41;;;17.19;100.00
73240;BME280;61452;40.054;4.110;2023-12-04T20:24:26;101551.00;;;17.18;100.00
73240;BME280;61452;40.054;4.110;2023-12-04T20:29:29;101560.69;;;17.19;100.00
73240;BME280;61452;40.054;4.110;2023-12-04T20:34:31;101563.31;;;17.19;100.00
73240;BME280;61452;40.054;4.110;2023-12-04T20:39:33;101559.81;;;17.18;100.00
73240;BME280;61452;40.054;4.110;2023-12-04T20:44:37;101552.72;;;17.19;100.00
73240;BME280;61452;40.054;4.110;2023-12-04T20:49:40;101550.94;;;17.19;100.00
73240;BME280;61452;40.054;4.110;2023-12-04T20:54:42;101542.28;;;17.16;100.00
73240;BME280;61452;40.054;4.110;2023-12-04T20:59:44;101550.06;;;17.19;100.00
73240;BME280;61452;40.054;4.110;2023-12-04T21:04:46;101538.63;;;17.18;100.00
73240;BME280;61452;40.054;4.110;2023-12-04T21:09:48;101537.75;;;17.18;100.00
73240;BME280;61452;40.054;4.110;2023-12-04T21:14:50;101544.78;;;17.19;100.00
73240;BME280;61452;40.054;4.110;2023-12-04T21:19:53;101534.16;;;17.19;100.00
73240;BME280;61452;40.054;4.110;2023-12-04T21:24:55;101534.16;;;17.19;100.00
73240;BME280;61452;40.054;4.110;2023-12-04T21:29:57;101535.00;;;17.19;100.00
73240;BME280;61452;40.054;4.110;2023-12-04T21:35:00;101544.69;;;17.20;100.00
73240;BME280;61452;40.054;4.110;2023-12-04T21:40:02;101542.97;;;17.19;100.00
73240;BME280;61452;40.054;4.110;2023-12-04T21:45:04;101546.56;;;17.18;100.00
73240;BME280;61452;40.054;4.110;2023-12-04T21:50:07;101551.88;;;17.18;100.00
73240;BME280;61452;40.054;4.110;2023-12-04T21:55:09;101547.41;;;17.19;100.00
73240;BME280;61452;40.054;4.110;2023-12-04T22:00:14;101544.84;;;17.17;100.00
73240;BME280;61452;40.054;4.110;2023-12-04T22:05:16;101553.66;;;17.18;100.00
73240;BME280;61452;40.054;4.110;2023-12-04T22:10:19;101553.66;;;17.18;100.00
73240;BME280;61452;40.054;4.110;2023-12-04T22:15:21;101550.06;;;17.19;100.00
73240;BME280;61452;40.054;4.110;2023-12-04T22:20:23;101554.34;;;17.21;100.00
73240;BME280;61452;40.054;4.110;2023-12-04T22:25:25;101549.13;;;17.20;100.00
73240;BME280;61452;40.054;4.110;2023-12-04T22:30:27;101551.00;;;17.18;100.00
73240;BME280;61452;40.054;4.110;2023-12-04T22:35:30;101553.75;;;17.16;100.00
73240;BME280;61452;40.054;4.110;2023-12-04T22:40:32;101559.53;;;17.23;100.00
73240;BME280;61452;40.054;4.110;2023-12-04T22:45:34;101570.97;;;17.23;100.00
73240;BME280;61452;40.054;4.110;2023-12-04T22:50:36;101576.59;;;17.19;100.00
73240;BME280;61452;40.054;4.110;2023-12-04T22:55:38;101569.28;;;17.22;100.00
73240;BME280;61452;40.054;4.110;2023-12-04T23:00:40;101571.84;;;17.24;100.00
73240;BME280;61452;40.054;4.110;2023-12-04T23:05:43;101565.69;;;17.23;100.00
73240;BME280;61452;40.054;4.110;2023-12-04T23:10:46;101560.75;;;17.17;100.00
73240;BME280;61452;40.054;4.110;2023-12-04T23:15:48;101541.66;;;17.12;100.00
73240;BME280;61452;40.054;4.110;2023-12-04T23:20:50;101543.81;;;17.20;100.00
73240;BME280;61452;40.054;4.110;2023-12-04T23:25:52;101546.38;;;17.21;100.00
73240;BME280;61452;40.054;4.110;2023-12-04T23:30:54;101534.25;;;17.17;100.00
73240;BME280;61452;40.054;4.110;2023-12-04T23:35:57;101535.19;;;17.16;100.00
73240;BME280;61452;40.054;4.110;2023-12-04T23:40:59;101526.97;;;17.21;100.00
73240;BME280;61452;40.054;4.110;2023-12-04T23:46:01;101518.75;;;17.11;100.00
73240;BME280;61452;40.054;4.110;2023-12-04T23:51:04;101532.66;;;17.15;100.00
73240;BME280;61452;40.054;4.110;2023-12-04T23:56:07;101530.75;;;17.17;100.00
